Time;durP1;ratioP1;P1;durP2;ratioP2;P2;SDS_P1;SDS_P2;PMS_P1;PMS_P2;Temp;Humidity;BMP_temperature;BMP_pressure;BME280_temperature;BME280_humidity;BME280_pressure;Samples;Min_cycle;Max_cycle;Signal;HPM_P1;HPM_P2
2022/06/18 00:02:18;;;;;;;4.33;2.07;;;18.10;78.40;;;;;;5065531;28;20986;-76
2022/06/18 00:05:04;;;;;;;4.23;1.80;;;17.90;78.40;;;;;;5070586;28;21031;-76
2022/06/18 00:07:52;;;;;;;4.70;2.10;;;17.80;79.60;;;;;;5065601;28;20446;-76
2022/06/18 00:10:40;;;;;;;3.30;1.60;;;17.60;79.80;;;;;;5073143;28;20446;-76
2022/06/18 00:13:39;;;;;;;5.47;1.90;;;17.60;81.20;;;;;;5066582;28;20540;-76
2022/06/18 00:16:25;;;;;;;3.07;1.80;;;17.60;80.70;;;;;;5072658;28;20577;-75
2022/06/18 00:19:10;;;;;;;5.30;2.17;;;17.70;80.50;;;;;;5069063;28;20455;-75
2022/06/18 00:21:56;;;;;;;3.20;1.90;;;17.70;80.40;;;;;;5068104;28;20524;-76
2022/06/18 00:24:43;;;;;;;5.03;2.30;;;17.60;80.30;;;;;;5066264;28;20492;-74
2022/06/18 00:27:30;;;;;;;3.53;1.87;;;17.50;80.90;;;;;;5074016;28;20446;-76
2022/06/18 00:30:18;;;;;;;4.60;2.77;;;17.40;80.80;;;;;;5068624;28;20443;-75
2022/06/18 00:33:04;;;;;;;2.70;1.80;;;17.30;82.30;;;;;;5063791;28;20810;-75
2022/06/18 00:35:51;;;;;;;4.47;1.90;;;17.30;82.20;;;;;;5065554;28;20517;-75
2022/06/18 00:38:41;;;;;;;2.93;1.40;;;17.30;82.50;;;;;;5073021;28;20438;-74
2022/06/18 00:41:27;;;;;;;5.07;2.23;;;17.20;82.30;;;;;;5069869;28;20595;-76
2022/06/18 00:44:23;;;;;;;3.87;1.80;;;17.20;82.90;;;;;;5076525;28;20964;-75
2022/06/18 00:47:15;;;;;;;2.20;1.50;;;17.20;82.80;;;;;;5072083;28;20958;-76
2022/06/18 00:50:05;;;;;;;6.23;1.70;;;17.40;82.10;;;;;;5071985;28;20446;-76
2022/06/18 00:52:54;;;;;;;4.60;2.00;;;17.50;81.90;;;;;;5064995;28;20462;-75
2022/06/18 00:55:44;;;;;;;3.30;2.00;;;17.60;81.90;;;;;;5077023;28;20481;-75
2022/06/18 00:58:32;;;;;;;4.37;1.83;;;17.50;81.90;;;;;;5075151;28;20522;-76
2022/06/18 01:01:23;;;;;;;4.03;2.20;;;17.40;81.80;;;;;;5072055;28;20958;-76
2022/06/18 01:04:23;;;;;;;3.23;1.80;;;17.40;81.80;;;;;;5076394;28;21049;-76
2022/06/18 01:07:19;;;;;;;7.27;1.97;;;17.40;81.80;;;;;;5075937;28;20442;-75
2022/06/18 01:10:14;;;;;;;2.40;2.00;;;17.30;82.40;;;;;;5069368;28;20570;-75
2022/06/18 01:13:02;;;;;;;3.80;1.90;;;17.20;82.50;;;;;;5072197;28;20533;-76
2022/06/18 01:15:49;;;;;;;3.60;2.00;;;17.00;82.90;;;;;;5073758;28;20498;-76
2022/06/18 01:18:38;;;;;;;3.50;2.17;;;16.90;84.90;;;;;;5075150;28;20935;-75
2022/06/18 01:21:31;;;;;;;3.13;1.50;;;16.90;85.20;;;;;;5079467;28;20458;-76
2022/06/18 01:24:19;;;;;;;12.70;2.53;;;16.90;85.20;;;;;;5072829;28;20504;-75
2022/06/18 01:27:07;;;;;;;3.80;1.90;;;16.90;85.50;;;;;;5075547;28;20502;-75
2022/06/18 01:29:54;;;;;;;3.73;1.53;;;16.90;85.40;;;;;;5073922;28;20459;-75
2022/06/18 01:32:39;;;;;;;3.37;1.87;;;16.90;85.10;;;;;;5068624;28;20437;-75
2022/06/18 01:35:25;;;;;;;2.50;1.73;;;17.00;84.60;;;;;;5074401;28;20474;-75
2022/06/18 01:38:12;;;;;;;3.50;1.93;;;16.90;84.80;;;;;;5073615;28;20442;-76
2022/06/18 01:41:49;;;;;;;4.27;2.00;;;16.80;85.10;;;;;;5065372;28;20451;-76
2022/06/18 01:44:13;;;;;;;4.17;1.87;;;16.70;85.70;;;;;;5072345;28;20811;-75
2022/06/18 01:47:03;;;;;;;2.53;1.70;;;16.60;86.60;;;;;;5068404;28;20484;-76
2022/06/18 01:49:53;;;;;;;2.57;1.77;;;16.60;87.20;;;;;;5066071;28;20972;-76
2022/06/18 01:52:43;;;;;;;5.23;2.20;;;16.60;88.00;;;;;;5068622;28;20839;-75
2022/06/18 01:55:32;;;;;;;3.60;2.03;;;16.50;87.90;;;;;;5070437;28;20475;-76
2022/06/18 01:58:24;;;;;;;11.27;2.10;;;16.50;87.80;;;;;;5070169;28;20454;-75
2022/06/18 02:01:29;;;;;;;3.90;2.30;;;16.60;87.50;;;;;;5066132;28;20446;-75
2022/06/18 02:04:17;;;;;;;3.70;1.80;;;16.70;86.80;;;;;;5069592;28;20503;-76
2022/06/18 02:07:07;;;;;;;3.23;2.00;;;16.70;87.10;;;;;;5068745;28;20537;-76
2022/06/18 02:09:58;;;;;;;5.33;1.77;;;16.60;87.20;;;;;;5067846;28;20508;-76
2022/06/18 02:12:44;;;;;;;3.00;1.63;;;16.60;87.20;;;;;;5069298;28;20884;-74
2022/06/18 02:15:35;;;;;;;3.50;2.10;;;16.70;87.20;;;;;;5074755;28;20466;-76
2022/06/18 02:18:20;;;;;;;6.10;1.93;;;16.80;87.20;;;;;;5069493;28;20840;-74
2022/06/18 02:21:11;;;;;;;2.53;1.80;;;16.90;86.90;;;;;;5069691;28;20451;-75
2022/06/18 02:23:56;;;;;;;4.33;1.73;;;17.00;86.20;;;;;;5068810;28;20458;-76
2022/06/18 02:26:45;;;;;;;2.50;1.77;;;16.80;85.80;;;;;;5071439;28;20497;-75
2022/06/18 02:29:33;;;;;;;5.23;1.90;;;16.60;86.90;;;;;;5068379;28;20963;-75
2022/06/18 02:32:27;;;;;;;3.30;1.80;;;16.40;88.00;;;;;;5071781;28;20442;-75
2022/06/18 02:35:13;;;;;;;2.73;1.80;;;16.30;89.30;;;;;;5069477;28;20801;-75
2022/06/18 02:38:00;;;;;;;4.83;2.07;;;16.30;89.80;;;;;;5071889;28;20505;-75
2022/06/18 02:40:46;;;;;;;2.83;1.87;;;16.10;90.00;;;;;;5066305;28;20443;-76
2022/06/18 02:43:34;;;;;;;3.10;2.20;;;16.00;90.80;;;;;;5070607;28;20466;-75
2022/06/18 02:46:20;;;;;;;2.97;1.90;;;16.00;91.20;;;;;;5071460;28;20435;-75
2022/06/18 02:49:10;;;;;;;7.57;2.43;;;16.00;91.50;;;;;;5068652;28;20974;-73
2022/06/18 02:51:56;;;;;;;2.93;1.60;;;15.90;91.70;;;;;;5066608;28;20870;-75
2022/06/18 02:54:41;;;;;;;4.23;1.70;;;16.00;91.70;;;;;;5068449;28;20858;-74
2022/06/18 02:57:29;;;;;;;8.70;2.47;;;16.00;91.70;;;;;;5069320;28;20466;-75
2022/06/18 03:00:16;;;;;;;4.73;2.53;;;16.10;91.50;;;;;;5067188;28;20451;-75
2022/06/18 03:03:01;;;;;;;3.17;1.60;;;16.30;91.10;;;;;;5073593;28;20525;-74
2022/06/18 03:05:48;;;;;;;11.33;2.47;;;16.30;90.70;;;;;;5068149;28;20428;-76
2022/06/18 03:08:35;;;;;;;3.40;1.90;;;16.20;90.90;;;;;;5071173;28;20535;-76
2022/06/18 03:14:28;;;;;;;2.80;1.63;;;16.30;91.00;;;;;;5071091;28;20505;-75
2022/06/18 03:17:13;;;;;;;2.63;1.80;;;16.40;90.90;;;;;;5069389;28;21026;-76
2022/06/18 03:20:03;;;;;;;4.40;1.50;;;16.30;90.70;;;;;;5066887;28;20998;-75
2022/06/18 03:22:50;;;;;;;6.07;2.10;;;16.20;90.90;;;;;;5071292;28;20871;-76
2022/06/18 03:25:36;;;;;;;3.83;1.77;;;16.20;91.10;;;;;;5066251;28;20455;-74
2022/06/18 03:28:23;;;;;;;3.57;1.80;;;16.10;91.30;;;;;;5072860;28;20517;-76
2022/06/18 03:31:08;;;;;;;4.90;3.30;;;16.20;91.40;;;;;;5066968;28;20533;-76
2022/06/18 03:33:54;;;;;;;2.53;1.83;;;16.30;91.20;;;;;;5069961;28;20474;-76
2022/06/18 03:36:40;;;;;;;3.00;1.90;;;16.40;90.80;;;;;;5069720;28;20531;-75
2022/06/18 03:39:27;;;;;;;5.53;2.20;;;16.30;90.90;;;;;;5066819;28;20497;-74
2022/06/18 03:42:13;;;;;;;4.57;1.90;;;16.20;91.20;;;;;;5066378;28;20509;-76
2022/06/18 03:44:58;;;;;;;3.40;1.80;;;16.30;91.20;;;;;;5069386;28;20515;-76
2022/06/18 03:47:45;;;;;;;5.40;2.30;;;16.30;91.40;;;;;;5065615;28;20475;-76
2022/06/18 03:50:30;;;;;;;3.47;2.00;;;16.50;91.70;;;;;;5071897;28;20442;-76
2022/06/18 03:53:16;;;;;;;2.23;1.73;;;16.50;91.80;;;;;;5071671;28;20462;-76
2022/06/18 03:56:04;;;;;;;3.10;2.40;;;16.70;91.40;;;;;;5070759;28;20470;-76
2022/06/18 03:58:50;;;;;;;2.80;1.63;;;16.60;91.40;;;;;;5068107;28;20920;-76
2022/06/18 04:01:40;;;;;;;2.87;1.87;;;16.50;91.20;;;;;;5072653;28;20397;-75
2022/06/18 04:04:25;;;;;;;6.77;2.10;;;16.40;91.70;;;;;;5078727;28;20455;-75
2022/06/18 04:07:18;;;;;;;4.17;2.37;;;16.30;91.90;;;;;;5078528;28;20439;-76
2022/06/18 04:10:06;;;;;;;4.53;1.90;;;16.40;92.20;;;;;;5074830;28;20452;-76
2022/06/18 04:12:53;;;;;;;4.43;2.27;;;16.50;92.20;;;;;;5070217;28;20446;-76
2022/06/18 04:15:39;;;;;;;6.73;1.80;;;16.50;92.10;;;;;;5069907;28;20414;-76
2022/06/18 04:18:25;;;;;;;3.63;1.77;;;16.60;92.30;;;;;;5076139;28;20423;-75
2022/06/18 04:21:10;;;;;;;2.87;1.93;;;16.70;92.60;;;;;;5077203;28;20584;-75
2022/06/18 04:23:56;;;;;;;3.10;2.30;;;16.70;92.50;;;;;;5074680;28;20904;-76
2022/06/18 04:26:42;;;;;;;2.80;1.73;;;16.70;92.40;;;;;;5070215;28;21022;-76
2022/06/18 04:29:32;;;;;;;4.50;1.97;;;16.60;92.40;;;;;;5071921;28;20465;-75
2022/06/18 04:32:18;;;;;;;3.77;2.17;;;16.70;92.60;;;;;;5085490;28;20434;-75
2022/06/18 04:35:05;;;;;;;3.47;2.10;;;16.70;92.70;;;;;;5081320;28;20450;-75
2022/06/18 04:37:51;;;;;;;3.50;2.13;;;16.80;92.70;;;;;;5068592;28;20470;-74
2022/06/18 04:40:37;;;;;;;11.50;2.30;;;16.80;93.00;;;;;;5069306;28;20985;-74
2022/06/18 04:43:23;;;;;;;3.40;2.07;;;16.80;93.20;;;;;;5080995;28;20573;-75
2022/06/18 04:46:11;;;;;;;4.40;2.57;;;16.90;93.40;;;;;;5076450;28;20827;-75
2022/06/18 04:48:57;;;;;;;3.17;2.37;;;16.90;93.60;;;;;;5062984;28;20505;-74
2022/06/18 04:51:42;;;;;;;5.00;2.60;;;17.00;93.40;;;;;;5076729;28;20454;-75
2022/06/18 04:54:28;;;;;;;9.50;2.40;;;17.10;93.50;;;;;;5072725;28;20468;-75
2022/06/18 04:57:14;;;;;;;3.33;2.27;;;17.30;93.50;;;;;;5081149;28;20494;-75
2022/06/18 05:00:00;;;;;;;5.90;2.37;;;17.40;93.40;;;;;;5076908;28;20450;-75
2022/06/18 05:02:47;;;;;;;4.83;2.60;;;17.60;93.40;;;;;;5073236;28;20449;-75
2022/06/18 05:05:32;;;;;;;3.00;2.33;;;17.70;93.30;;;;;;5075488;22;20507;-76
2022/06/18 05:08:18;;;;;;;4.53;2.20;;;17.80;93.10;;;;;;5052613;28;20455;-76
2022/06/18 05:11:04;;;;;;;5.90;2.40;;;18.00;93.00;;;;;;5050768;28;20428;-76
2022/06/18 05:13:50;;;;;;;4.13;2.50;;;18.10;92.70;;;;;;5055211;28;20447;-75
2022/06/18 05:16:36;;;;;;;3.30;2.20;;;18.20;92.70;;;;;;5069480;28;20568;-76
2022/06/18 05:19:26;;;;;;;4.70;2.20;;;18.30;92.60;;;;;;5062734;28;20485;-77
2022/06/18 05:22:11;;;;;;;3.50;2.30;;;18.40;92.30;;;;;;5069808;28;20422;-77
2022/06/18 05:24:57;;;;;;;4.67;2.47;;;18.60;92.40;;;;;;5067810;28;20509;-76
2022/06/18 05:27:44;;;;;;;4.93;2.23;;;18.60;92.00;;;;;;5068247;28;20522;-75
2022/06/18 05:30:30;;;;;;;3.23;2.30;;;18.70;91.60;;;;;;5066801;28;20576;-76
2022/06/18 05:33:16;;;;;;;5.70;2.50;;;18.90;91.50;;;;;;5072345;28;20446;-76
2022/06/18 05:36:03;;;;;;;5.40;2.00;;;19.00;91.20;;;;;;5073934;28;20451;-76
2022/06/18 05:38:51;;;;;;;3.37;2.40;;;19.00;90.90;;;;;;5067508;28;20537;-76
2022/06/18 05:41:36;;;;;;;3.40;2.27;;;19.10;90.80;;;;;;5065550;28;20426;-76
2022/06/18 05:44:22;;;;;;;3.77;2.20;;;19.20;90.50;;;;;;5057210;28;20455;-77
2022/06/18 05:47:13;;;;;;;2.57;2.07;;;19.40;91.00;;;;;;5070366;28;20450;-76
2022/06/18 05:50:00;;;;;;;3.30;2.20;;;19.40;90.80;;;;;;5067325;28;20436;-76
2022/06/18 05:52:48;;;;;;;2.70;2.07;;;19.50;90.70;;;;;;5061740;28;20433;-77
2022/06/18 05:55:33;;;;;;;4.83;2.10;;;19.60;90.40;;;;;;5059219;28;20478;-76
2022/06/18 05:58:19;;;;;;;2.50;1.80;;;19.60;90.40;;;;;;5068177;28;21612;-76
2022/06/18 06:01:05;;;;;;;3.57;2.10;;;19.70;90.50;;;;;;5073043;28;20454;-76
2022/06/18 06:03:51;;;;;;;7.40;2.17;;;19.90;90.90;;;;;;5064159;28;20505;-77
2022/06/18 06:06:36;;;;;;;3.70;2.20;;;20.00;90.60;;;;;;5067793;28;20427;-77
2022/06/18 06:12:28;;;;;;;4.50;2.63;;;20.30;89.90;;;;;;5072297;28;20446;-76
2022/06/18 06:15:13;;;;;;;3.47;2.40;;;20.40;89.50;;;;;;5061868;28;20450;-76
2022/06/18 06:17:59;;;;;;;4.00;2.43;;;20.60;87.40;;;;;;5068359;28;20475;-77
2022/06/18 06:20:48;;;;;;;5.10;2.20;;;20.70;84.50;;;;;;5068944;28;20435;-76
2022/06/18 06:23:34;;;;;;;6.13;2.40;;;20.90;84.60;;;;;;5067674;28;20451;-77
2022/06/18 06:26:25;;;;;;;5.67;2.10;;;21.00;84.70;;;;;;5070797;28;20501;-77
2022/06/18 06:29:11;;;;;;;7.03;2.20;;;21.10;84.80;;;;;;5067779;28;21020;-76
2022/06/18 06:31:57;;;;;;;5.17;2.40;;;21.20;82.60;;;;;;5062656;28;20443;-76
2022/06/18 06:34:42;;;;;;;6.10;2.53;;;21.30;81.70;;;;;;5068377;28;20455;-75
2022/06/18 06:37:28;;;;;;;3.83;2.10;;;21.40;80.50;;;;;;5071269;28;20930;-75
2022/06/18 06:40:15;;;;;;;5.33;2.53;;;21.50;77.90;;;;;;5068992;28;20481;-77
2022/06/18 06:43:02;;;;;;;4.90;2.23;;;21.60;77.60;;;;;;5068873;28;20767;-76
2022/06/18 06:45:47;;;;;;;2.93;2.30;;;21.60;77.50;;;;;;5063753;28;20520;-76
2022/06/18 06:48:33;;;;;;;3.73;2.30;;;21.80;74.70;;;;;;5063562;28;20444;-74
2022/06/18 06:51:22;;;;;;;3.30;2.00;;;21.90;72.50;;;;;;5067026;28;20438;-76
2022/06/18 06:54:09;;;;;;;3.80;2.20;;;22.00;73.70;;;;;;5073790;28;20574;-77
2022/06/18 06:59:59;;;;;;;4.73;2.00;;;22.20;71.60;;;;;;5068907;28;20821;-77
2022/06/18 07:02:46;;;;;;;3.60;2.07;;;22.30;69.20;;;;;;5066943;28;20952;-77
2022/06/18 07:05:31;;;;;;;5.60;2.10;;;22.40;67.00;;;;;;5066306;28;20480;-77
2022/06/18 07:08:17;;;;;;;3.97;2.20;;;22.60;66.40;;;;;;5066470;28;20196;-77
2022/06/18 07:11:02;;;;;;;6.03;2.50;;;22.70;64.90;;;;;;5071861;28;20518;-77
2022/06/18 07:13:48;;;;;;;3.17;2.27;;;22.80;66.70;;;;;;5068652;28;20423;-77
2022/06/18 07:16:37;;;;;;;2.60;1.80;;;22.90;69.20;;;;;;5064055;28;20458;-76
2022/06/18 07:19:22;;;;;;;3.23;2.13;;;23.00;71.40;;;;;;5072669;28;20451;-77
2022/06/18 07:22:10;;;;;;;4.50;2.77;;;23.10;71.10;;;;;;5072725;28;20426;-77
2022/06/18 07:24:56;;;;;;;6.27;2.33;;;23.20;65.40;;;;;;5072759;28;20477;-77
2022/06/18 07:27:42;;;;;;;5.20;2.40;;;23.40;70.10;;;;;;5064225;28;20533;-76
2022/06/18 07:30:27;;;;;;;3.57;1.87;;;23.40;65.40;;;;;;5070571;28;20448;-77
2022/06/18 07:33:19;;;;;;;5.27;2.40;;;23.50;66.20;;;;;;5072177;28;20443;-77
2022/06/18 07:36:04;;;;;;;3.27;2.10;;;23.60;65.20;;;;;;5070277;28;20458;-75
2022/06/18 07:38:50;;;;;;;3.10;2.33;;;23.80;66.70;;;;;;5067309;28;20478;-77
2022/06/18 07:41:41;;;;;;;3.30;2.17;;;24.00;65.20;;;;;;5063544;28;20445;-77
2022/06/18 07:44:27;;;;;;;6.07;2.10;;;24.10;64.70;;;;;;5073697;28;20857;-77
2022/06/18 07:47:15;;;;;;;4.50;2.20;;;24.20;64.80;;;;;;5065056;28;20488;-76
2022/06/18 07:50:03;;;;;;;3.50;2.30;;;24.30;62.80;;;;;;5070755;28;20450;-77
2022/06/18 07:52:49;;;;;;;3.57;2.23;;;24.40;64.10;;;;;;5073363;28;20445;-75
2022/06/18 07:55:35;;;;;;;7.30;2.13;;;24.60;60.50;;;;;;5074088;28;20505;-77
2022/06/18 07:58:20;;;;;;;4.47;2.50;;;24.70;64.10;;;;;;5067873;28;20462;-76
2022/06/18 08:01:06;;;;;;;5.57;2.40;;;24.80;61.70;;;;;;5074335;28;20461;-77
2022/06/18 08:03:52;;;;;;;10.13;2.43;;;24.90;60.20;;;;;;5063944;28;20562;-77
2022/06/18 08:06:39;;;;;;;4.30;2.63;;;25.00;60.60;;;;;;5068163;28;20442;-75
2022/06/18 08:09:25;;;;;;;4.30;2.50;;;25.10;58.80;;;;;;5069475;28;20971;-77
2022/06/18 08:12:11;;;;;;;4.30;2.20;;;25.20;54.00;;;;;;5069830;28;20443;-77
2022/06/18 08:14:58;;;;;;;4.00;2.07;;;25.30;55.20;;;;;;5055322;28;20972;-77
2022/06/18 08:17:43;;;;;;;4.17;2.00;;;25.50;51.70;;;;;;5069486;28;20465;-77
2022/06/18 08:20:30;;;;;;;4.20;2.37;;;25.60;48.80;;;;;;5073109;28;20580;-77
2022/06/18 08:23:17;;;;;;;6.30;2.27;;;25.70;48.10;;;;;;5063969;28;20430;-77
2022/06/18 08:26:03;;;;;;;3.80;2.13;;;25.80;47.00;;;;;;5068828;28;20435;-77
2022/06/18 08:28:49;;;;;;;3.40;1.90;;;25.90;50.40;;;;;;5069196;28;20496;-77
2022/06/18 08:31:35;;;;;;;3.40;2.10;;;26.00;48.50;;;;;;5073181;28;20442;-76
2022/06/18 08:34:20;;;;;;;4.50;2.50;;;26.10;52.80;;;;;;5069396;28;20462;-76
2022/06/18 08:37:09;;;;;;;3.63;2.40;;;26.30;38.40;;;;;;5060402;28;20474;-77
2022/06/18 08:39:57;;;;;;;3.73;1.90;;;26.30;42.90;;;;;;5065733;28;20889;-77
2022/06/18 08:42:51;;;;;;;5.50;2.37;;;26.40;36.30;;;;;;5074367;28;20426;-77
2022/06/18 08:45:42;;;;;;;3.50;2.10;;;26.50;37.90;;;;;;5062629;28;20467;-77
2022/06/18 08:48:49;;;;;;;3.20;1.97;;;26.60;36.70;;;;;;5066199;28;20797;-76
2022/06/18 08:51:45;;;;;;;2.43;1.70;;;26.70;31.90;;;;;;5069254;28;20989;-76
2022/06/18 08:54:43;;;;;;;3.13;2.10;;;26.80;34.80;;;;;;5063969;28;20458;-76
2022/06/18 08:57:39;;;;;;;5.23;1.60;;;26.90;32.10;;;;;;5061892;28;20513;-77
2022/06/18 09:00:32;;;;;;;5.97;2.40;;;26.90;33.60;;;;;;5069595;28;20596;-77
2022/06/18 09:03:26;;;;;;;5.43;2.07;;;27.00;34.40;;;;;;5066307;28;20577;-77
2022/06/18 09:06:22;;;;;;;5.93;2.50;;;27.10;32.30;;;;;;5063788;28;20917;-77
2022/06/18 09:09:17;;;;;;;8.30;2.13;;;27.20;34.50;;;;;;5073919;28;20434;-75
2022/06/18 09:12:07;;;;;;;3.77;1.90;;;27.30;32.40;;;;;;5065809;28;20453;-77
2022/06/18 09:15:00;;;;;;;6.93;2.07;;;27.30;30.20;;;;;;5069150;28;20574;-77
2022/06/18 09:17:49;;;;;;;3.87;2.40;;;27.50;31.50;;;;;;5066206;28;20524;-77
2022/06/18 09:20:40;;;;;;;2.97;1.80;;;27.50;32.60;;;;;;5073842;28;21088;-77
2022/06/18 09:23:29;;;;;;;7.50;1.83;;;27.60;31.40;;;;;;5069664;28;20439;-77
2022/06/18 09:26:21;;;;;;;2.90;1.87;;;27.60;30.50;;;;;;5069851;28;20447;-77
2022/06/18 09:29:13;;;;;;;4.63;2.07;;;27.80;30.40;;;;;;5063908;28;20501;-77
2022/06/18 09:32:06;;;;;;;4.90;1.80;;;27.90;30.00;;;;;;5062408;28;20446;-77
2022/06/18 09:34:59;;;;;;;3.63;1.80;;;28.00;28.40;;;;;;5061321;28;20470;-78
2022/06/18 09:37:53;;;;;;;2.97;1.60;;;28.10;28.90;;;;;;5065325;28;20474;-76
2022/06/18 09:40:52;;;;;;;2.70;1.70;;;28.20;28.30;;;;;;5070599;28;20620;-76
2022/06/18 09:43:43;;;;;;;5.17;1.80;;;28.20;25.90;;;;;;5056947;28;20424;-77
2022/06/18 09:46:40;;;;;;;3.50;1.80;;;28.30;26.50;;;;;;5063163;28;20505;-76
2022/06/18 09:49:28;;;;;;;3.37;1.70;;;28.40;27.60;;;;;;5070020;28;20450;-77
2022/06/18 09:52:18;;;;;;;4.83;2.53;;;28.40;26.30;;;;;;5069919;28;20493;-77
2022/06/18 09:55:09;;;;;;;3.30;1.67;;;28.50;25.60;;;;;;5069797;28;20442;-77
2022/06/18 09:57:57;;;;;;;4.27;1.50;;;28.60;25.00;;;;;;5063547;28;20464;-76
2022/06/18 10:00:45;;;;;;;3.20;1.40;;;28.60;24.80;;;;;;5067248;28;20451;-77
2022/06/18 10:06:56;;;;;;;3.97;1.67;;;28.80;24.30;;;;;;5067295;28;20530;-75
2022/06/18 10:09:47;;;;;;;3.47;1.50;;;28.90;25.60;;;;;;5065379;28;20423;-76
2022/06/18 10:12:34;;;;;;;5.10;1.50;;;29.00;24.30;;;;;;5070600;28;20565;-77
2022/06/18 10:15:21;;;;;;;6.50;2.40;;;29.10;25.50;;;;;;5070679;28;20832;-75
2022/06/18 10:18:29;;;;;;;7.13;1.77;;;29.20;24.40;;;;;;5072192;28;20458;-77
2022/06/18 10:21:23;;;;;;;3.33;1.77;;;29.30;24.30;;;;;;5066404;28;20524;-75
2022/06/18 10:24:17;;;;;;;3.77;1.90;;;29.40;23.20;;;;;;5064328;28;20600;-77
2022/06/18 10:27:07;;;;;;;3.90;1.70;;;29.40;23.20;;;;;;5059662;28;20447;-77
2022/06/18 10:30:01;;;;;;;2.70;1.70;;;29.50;23.10;;;;;;5070876;28;20423;-77
2022/06/18 10:32:55;;;;;;;2.90;1.73;;;29.50;22.80;;;;;;5068371;28;20498;-77
2022/06/18 10:35:48;;;;;;;4.70;1.73;;;29.50;23.30;;;;;;5066957;28;20467;-76
2022/06/18 10:39:04;;;;;;;5.70;1.77;;;29.60;22.80;;;;;;5067942;28;21002;-77
2022/06/18 10:42:11;;;;;;;3.33;1.63;;;29.70;23.00;;;;;;5071843;28;20582;-77
2022/06/18 10:45:15;;;;;;;3.83;1.67;;;29.80;24.30;;;;;;5066427;28;20877;-77
2022/06/18 10:48:01;;;;;;;4.37;1.50;;;29.90;23.60;;;;;;5070249;28;20493;-77
2022/06/18 10:50:50;;;;;;;3.17;1.70;;;30.00;25.30;;;;;;5060659;28;20980;-76
2022/06/18 10:53:45;;;;;;;4.17;1.83;;;30.10;24.70;;;;;;5059095;28;20455;-77
2022/06/18 10:56:33;;;;;;;4.90;1.77;;;30.20;22.30;;;;;;5061225;28;20467;-77
2022/06/18 10:59:32;;;;;;;7.83;1.63;;;30.20;24.20;;;;;;5069004;28;20680;-77
2022/06/18 11:02:21;;;;;;;3.20;1.80;;;30.40;24.10;;;;;;5063759;28;20458;-77
2022/06/18 11:05:26;;;;;;;3.63;1.60;;;30.40;22.50;;;;;;5082692;22;20517;-75
2022/06/18 11:08:21;;;;;;;3.30;1.93;;;30.50;24.80;;;;;;5071025;28;20450;-74
2022/06/18 11:11:09;;;;;;;2.90;1.93;;;30.50;22.50;;;;;;5072689;28;20431;-75
2022/06/18 11:13:55;;;;;;;4.20;1.70;;;30.60;22.50;;;;;;5068049;28;20466;-76
2022/06/18 11:16:45;;;;;;;10.40;1.80;;;30.60;23.40;;;;;;5075050;28;20501;-76
2022/06/18 11:19:35;;;;;;;3.47;1.90;;;30.70;23.60;;;;;;5074650;28;20465;-73
2022/06/18 11:22:26;;;;;;;3.30;1.73;;;30.90;23.10;;;;;;5073551;28;20446;-73
2022/06/18 11:25:26;;;;;;;4.63;1.63;;;30.90;22.70;;;;;;5066654;28;20459;-73
2022/06/18 11:28:19;;;;;;;6.93;2.43;;;31.00;22.80;;;;;;5080955;28;20439;-72
2022/06/18 11:31:05;;;;;;;6.60;1.77;;;31.10;22.90;;;;;;5066484;28;20438;-73
2022/06/18 11:33:59;;;;;;;6.03;1.93;;;31.20;22.90;;;;;;5076417;28;20450;-73
2022/06/18 11:36:49;;;;;;;5.23;2.20;;;31.20;22.00;;;;;;5078527;28;20447;-73
2022/06/18 11:39:37;;;;;;;3.70;2.20;;;31.20;22.90;;;;;;5066923;28;20458;-72
2022/06/18 11:42:28;;;;;;;14.17;2.63;;;31.30;23.00;;;;;;5073612;28;20438;-73
2022/06/18 11:45:37;;;;;;;10.93;2.47;;;31.40;24.00;;;;;;5068826;28;20477;-73
2022/06/18 11:48:30;;;;;;;7.47;2.43;;;31.50;24.20;;;;;;5072266;28;20489;-73
2022/06/18 11:51:24;;;;;;;11.80;2.00;;;31.70;23.20;;;;;;5070041;28;20451;-72
2022/06/18 11:54:19;;;;;;;4.10;2.20;;;31.80;23.30;;;;;;5072820;28;20533;-73
2022/06/18 11:57:14;;;;;;;3.97;1.93;;;31.90;23.40;;;;;;5073439;28;20446;-72
2022/06/18 12:00:07;;;;;;;5.73;1.83;;;32.00;22.00;;;;;;5068068;28;20525;-73
2022/06/18 12:02:57;;;;;;;5.70;2.37;;;32.00;21.90;;;;;;5069382;28;20955;-73
2022/06/18 12:05:46;;;;;;;5.37;2.03;;;32.10;22.00;;;;;;5060558;28;20501;-73
2022/06/18 12:08:34;;;;;;;10.30;2.10;;;32.10;22.70;;;;;;5070521;28;20451;-73
2022/06/18 12:11:41;;;;;;;14.53;3.03;;;32.20;22.80;;;;;;5078738;28;20521;-73
2022/06/18 12:14:34;;;;;;;5.20;2.67;;;32.40;23.70;;;;;;5069825;28;20462;-73
2022/06/18 12:17:25;;;;;;;6.97;2.40;;;32.40;22.60;;;;;;5069915;28;20458;-73
2022/06/18 12:20:33;;;;;;;5.67;2.50;;;32.50;21.80;;;;;;5074821;28;20442;-72
2022/06/18 12:23:27;;;;;;;7.43;2.60;;;32.60;21.30;;;;;;5073769;28;20446;-72
2022/06/18 12:26:20;;;;;;;11.23;3.10;;;32.60;21.30;;;;;;5068760;28;20466;-72
2022/06/18 12:29:24;;;;;;;5.87;2.83;;;32.60;20.40;;;;;;5068593;28;20466;-72
2022/06/18 12:32:16;;;;;;;8.97;2.20;;;32.70;21.40;;;;;;5085283;28;20487;-72
2022/06/18 12:35:12;;;;;;;6.90;2.43;;;32.80;21.20;;;;;;5067332;28;20929;-72
2022/06/18 12:38:08;;;;;;;10.43;2.70;;;32.90;21.10;;;;;;5074825;28;20442;-73
2022/06/18 12:41:03;;;;;;;10.73;3.40;;;32.90;20.30;;;;;;5077452;28;20454;-73
2022/06/18 12:43:59;;;;;;;12.20;2.30;;;33.00;20.10;;;;;;5069071;28;20501;-72
2022/06/18 12:46:52;;;;;;;6.83;2.60;;;33.00;20.40;;;;;;5074202;28;20505;-73
2022/06/18 12:49:45;;;;;;;10.47;2.67;;;33.10;20.70;;;;;;5075868;28;20524;-73
2022/06/18 12:52:42;;;;;;;13.33;3.63;;;33.30;20.40;;;;;;5078693;28;20446;-73
2022/06/18 12:55:38;;;;;;;10.37;2.43;;;33.30;19.50;;;;;;5070029;28;20478;-72
2022/06/18 12:58:36;;;;;;;11.93;2.60;;;33.40;19.40;;;;;;5075836;28;20474;-73
2022/06/18 13:01:29;;;;;;;9.33;3.07;;;33.50;21.20;;;;;;5076968;28;20450;-73
2022/06/18 13:04:47;;;;;;;19.57;3.30;;;33.60;20.60;;;;;;5075758;28;20443;-73
2022/06/18 13:07:45;;;;;;;17.13;2.93;;;33.70;19.40;;;;;;5079160;28;20422;-73
2022/06/18 13:10:37;;;;;;;17.03;3.50;;;33.70;19.00;;;;;;5076407;28;20457;-73
2022/06/18 13:13:40;;;;;;;7.53;3.00;;;33.80;21.00;;;;;;5071318;28;20457;-73
2022/06/18 13:16:32;;;;;;;10.93;3.30;;;33.90;19.30;;;;;;5076102;28;20466;-73
2022/06/18 13:19:24;;;;;;;11.27;3.00;;;33.90;18.70;;;;;;5070636;28;20474;-73
2022/06/18 13:22:11;;;;;;;11.03;2.40;;;34.00;19.10;;;;;;5073591;28;20455;-73
2022/06/18 13:28:12;;;;;;;7.63;2.93;;;34.10;18.60;;;;;;5075448;28;20442;-73
2022/06/18 13:31:05;;;;;;;15.63;2.57;;;34.00;17.70;;;;;;5081403;28;20434;-73
2022/06/18 13:34:02;;;;;;;10.00;2.87;;;34.10;18.60;;;;;;5063106;28;20435;-73
2022/06/18 13:36:55;;;;;;;16.63;3.17;;;34.20;19.20;;;;;;5076243;28;20443;-73
2022/06/18 13:39:52;;;;;;;14.50;3.00;;;34.20;18.50;;;;;;5074484;28;20544;-73
2022/06/18 13:42:52;;;;;;;17.73;3.27;;;34.30;18.40;;;;;;5069978;28;20533;-73
2022/06/18 13:45:46;;;;;;;9.40;3.10;;;34.40;18.20;;;;;;5078391;28;20907;-73
2022/06/18 13:48:49;;;;;;;18.33;3.87;;;34.50;17.90;;;;;;5073400;28;20422;-73
2022/06/18 13:51:38;;;;;;;12.43;2.80;;;34.40;17.90;;;;;;5076926;28;20552;-73
2022/06/18 13:54:24;;;;;;;14.17;3.57;;;34.30;17.60;;;;;;5076199;28;20584;-73
2022/06/18 13:57:11;;;;;;;16.37;3.03;;;34.30;17.90;;;;;;5073709;28;20446;-73
2022/06/18 13:59:59;;;;;;;6.87;2.33;;;34.30;17.10;;;;;;5069115;28;20592;-73
2022/06/18 14:02:54;;;;;;;12.97;3.33;;;34.40;19.00;;;;;;5075115;28;20433;-73
2022/06/18 14:05:44;;;;;;;8.50;2.60;;;34.50;17.60;;;;;;5070165;28;20482;-73
2022/06/18 14:08:34;;;;;;;20.57;3.23;;;34.50;19.30;;;;;;5081948;28;20423;-73
2022/06/18 14:11:35;;;;;;;13.47;3.30;;;34.60;18.00;;;;;;5079360;28;20919;-73
2022/06/18 14:14:32;;;;;;;18.80;3.10;;;34.60;16.50;;;;;;5067472;28;20577;-73
2022/06/18 14:17:19;;;;;;;13.87;3.20;;;34.70;16.80;;;;;;5069531;28;20504;-72
2022/06/18 14:20:06;;;;;;;24.43;3.23;;;34.70;17.50;;;;;;5075545;28;20565;-75
2022/06/18 14:23:02;;;;;;;13.37;2.47;;;34.80;16.70;;;;;;5065723;28;20454;-73
2022/06/18 14:26:02;;;;;;;14.60;3.20;;;34.80;16.20;;;;;;5066902;28;20835;-74
2022/06/18 14:29:00;;;;;;;14.20;3.43;;;34.70;17.10;;;;;;5070057;28;20442;-75
2022/06/18 14:31:58;;;;;;;12.83;2.83;;;34.80;18.00;;;;;;5068899;28;20955;-76
2022/06/18 14:34:52;;;;;;;16.97;3.10;;;34.80;16.70;;;;;;5072951;28;20459;-75
2022/06/18 14:37:45;;;;;;;15.93;3.00;;;34.70;17.70;;;;;;5075868;28;20447;-76
2022/06/18 14:41:34;;;;;;;16.17;2.50;;;34.60;17.30;;;;;;5083395;28;20473;-76
2022/06/18 14:43:56;;;;;;;12.37;3.60;;;34.70;17.60;;;;;;5067110;28;20445;-75
2022/06/18 14:47:01;;;;;;;9.70;2.70;;;34.70;17.00;;;;;;5078155;28;20515;-76
2022/06/18 14:50:07;;;;;;;10.37;3.13;;;34.70;18.40;;;;;;5073654;28;20446;-75
2022/06/18 14:53:10;;;;;;;15.23;3.00;;;34.70;17.70;;;;;;5070646;28;20849;-75
2022/06/18 14:56:07;;;;;;;15.67;3.33;;;34.60;17.00;;;;;;5066511;28;20466;-74
2022/06/18 14:59:17;;;;;;;10.40;3.10;;;34.60;18.10;;;;;;5071166;28;20568;-75
2022/06/18 15:02:10;;;;;;;12.30;3.47;;;34.70;19.20;;;;;;5069129;28;20626;-75